createdAt,value
2016-05-25T00:00:02.110Z,0
2016-05-25T00:01:02.222Z,0
2016-05-25T00:02:02.630Z,0
2016-05-25T00:03:02.133Z,0
2016-05-25T00:04:01.996Z,0
2016-05-25T00:05:02.186Z,0
2016-05-25T00:06:02.173Z,0
2016-05-25T00:07:02.191Z,0
2016-05-25T00:08:02.194Z,0
2016-05-25T00:09:02.197Z,0
2016-05-25T00:10:02.215Z,0
2016-05-25T00:11:02.077Z,0
2016-05-25T00:12:02.063Z,0
2016-05-25T00:13:02.301Z,0
2016-05-25T00:14:02.523Z,0
2016-05-25T00:15:02.275Z,0
2016-05-25T00:16:02.263Z,0
2016-05-25T00:17:02.593Z,0
2016-05-25T00:18:02.518Z,0
2016-05-25T00:19:02.192Z,0
2016-05-25T00:20:02.335Z,0
2016-05-25T00:21:01.995Z,0
2016-05-25T00:22:02.512Z,0
2016-05-25T00:23:02.359Z,0
2016-05-25T00:24:02.378Z,0
2016-05-25T00:25:02.224Z,0
2016-05-25T00:26:02.211Z,0
2016-05-25T00:27:02.386Z,0
2016-05-25T00:28:02.061Z,0
2016-05-25T00:29:02.579Z,0
2016-05-25T00:30:02.534Z,0
2016-05-25T00:31:02.412Z,0
2016-05-25T00:32:02.508Z,0
2016-05-25T00:33:02.495Z,0
2016-05-25T00:34:02.420Z,0
2016-05-25T00:35:02.500Z,0
2016-05-25T00:36:02.410Z,0
2016-05-25T00:37:02.474Z,0
2016-05-25T00:38:02.713Z,0
2016-05-25T00:39:02.341Z,0
2016-05-25T00:40:02.343Z,0
2016-05-25T00:41:02.517Z,0
2016-05-25T00:42:02.348Z,0
2016-05-25T00:43:02.663Z,0
2016-05-25T00:44:02.587Z,0
2016-05-25T00:45:02.543Z,0
2016-05-25T00:46:02.562Z,0
2016-05-25T00:47:02.424Z,0
2016-05-25T00:48:02.568Z,0
2016-05-25T00:49:02.617Z,0
2016-05-25T00:50:02.604Z,0
2016-05-25T00:51:02.715Z,0
2016-05-25T00:52:02.437Z,0
2016-05-25T00:53:02.565Z,0
2016-05-25T00:54:02.598Z,0
2016-05-25T00:55:02.634Z,0
2016-05-25T00:56:02.511Z,0
2016-05-25T00:57:02.638Z,0
2016-05-25T00:58:02.500Z,0
2016-05-25T00:59:02.675Z,0
2016-05-25T01:00:02.693Z,0
2016-05-25T01:01:02.695Z,0
2016-05-25T01:02:03.277Z,0
2016-05-25T01:03:02.701Z,0
2016-05-25T01:04:02.703Z,0
2016-05-25T01:05:02.738Z,0
2016-05-25T01:06:02.771Z,0
2016-05-25T01:07:02.743Z,0
2016-05-25T01:08:02.574Z,0
2016-05-25T01:09:02.780Z,0
2016-05-25T01:10:02.783Z,0
2016-05-25T01:11:02.785Z,0
2016-05-25T01:12:02.663Z,0
2016-05-25T01:13:02.821Z,0
2016-05-25T01:14:02.637Z,0
2016-05-25T01:15:02.843Z,0
2016-05-25T01:16:02.517Z,0
2016-05-25T01:17:03.488Z,0
2016-05-25T01:18:02.679Z,0
2016-05-25T01:19:02.869Z,0
2016-05-25T01:20:02.856Z,0
2016-05-25T01:21:02.890Z,0
2016-05-25T01:22:02.752Z,0
2016-05-25T01:23:02.895Z,0
2016-05-25T01:24:02.882Z,0
2016-05-25T01:25:03.010Z,0
2016-05-25T01:26:02.919Z,0
2016-05-25T01:27:02.954Z,0
2016-05-25T01:28:02.956Z,0
2016-05-25T01:29:02.787Z,0
2016-05-25T01:30:02.820Z,0
2016-05-25T01:31:02.980Z,0
2016-05-25T01:32:04.233Z,0
2016-05-25T01:33:03.000Z,0
2016-05-25T01:34:03.003Z,0
2016-05-25T01:35:02.991Z,0
2016-05-25T01:36:03.039Z,0
2016-05-25T01:37:02.839Z,0
2016-05-25T01:38:03.029Z,0
2016-05-25T01:39:03.032Z,0
2016-05-25T01:40:03.083Z,0
2016-05-25T01:41:03.053Z,0
2016-05-25T01:42:03.088Z,0
2016-05-25T01:43:02.949Z,0
2016-05-25T01:44:03.077Z,0
2016-05-25T01:45:03.096Z,0
2016-05-25T01:46:03.285Z,0
2016-05-25T01:47:03.085Z,0
2016-05-25T01:48:03.135Z,0
2016-05-25T01:49:02.997Z,0
2016-05-25T01:50:02.999Z,0
2016-05-25T01:51:03.126Z,0
2016-05-25T01:52:03.177Z,0
2016-05-25T01:53:02.992Z,0
2016-05-25T01:54:03.198Z,0
2016-05-25T01:55:03.169Z,0
2016-05-25T01:56:03.203Z,0
2016-05-25T01:57:03.221Z,0
2016-05-25T01:58:03.067Z,0
2016-05-25T01:59:03.055Z,0
2016-05-25T02:00:03.229Z,0
2016-05-25T02:01:03.482Z,0
2016-05-25T02:02:03.282Z,0
2016-05-25T02:03:03.284Z,0
2016-05-25T02:04:03.256Z,0
2016-05-25T02:05:03.274Z,0
2016-05-25T02:06:03.308Z,0
2016-05-25T02:07:03.280Z,0
2016-05-25T02:08:03.141Z,0
2016-05-25T02:09:03.144Z,0
2016-05-25T02:10:03.350Z,0
2016-05-25T02:11:03.306Z,0
2016-05-25T02:12:03.356Z,0
2016-05-25T02:13:03.358Z,0
2016-05-25T02:14:03.361Z,0
2016-05-25T02:15:03.363Z,0
2016-05-25T02:16:03.241Z,0
2016-05-25T02:17:04.165Z,0
2016-05-25T02:18:03.402Z,0
2016-05-25T02:19:03.265Z,0
2016-05-25T02:20:03.112Z,0
2016-05-25T02:21:03.442Z,0
2016-05-25T02:22:03.429Z,0
2016-05-25T02:23:03.463Z,0
2016-05-25T02:24:03.482Z,0
2016-05-25T02:25:03.312Z,0
2016-05-25T02:26:03.456Z,0
2016-05-25T02:27:03.348Z,0
2016-05-25T02:28:03.336Z,0
2016-05-25T02:29:03.494Z,0
2016-05-25T02:30:03.497Z,0
2016-05-25T02:31:03.391Z,0
2016-05-25T02:32:03.487Z,0
2016-05-25T02:33:03.381Z,0
2016-05-25T02:34:03.587Z,0
2016-05-25T02:35:03.573Z,0
2016-05-25T02:36:03.405Z,0
2016-05-25T02:37:03.578Z,0
2016-05-25T02:38:03.566Z,0
2016-05-25T02:39:03.458Z,0
2016-05-25T02:40:03.603Z,0
2016-05-25T02:41:03.464Z,0
2016-05-25T02:42:03.608Z,0
2016-05-25T02:43:03.658Z,0
2016-05-25T02:44:03.488Z,0
2016-05-25T02:45:03.679Z,0
2016-05-25T02:46:03.369Z,0
2016-05-25T02:47:03.824Z,0
2016-05-25T02:48:03.671Z,0
2016-05-25T02:49:03.689Z,0
2016-05-25T02:50:03.567Z,0
2016-05-25T02:51:03.571Z,0
2016-05-25T02:52:03.556Z,0
2016-05-25T02:53:03.435Z,0
2016-05-25T02:54:03.578Z,0
2016-05-25T02:55:03.784Z,0
2016-05-25T02:56:03.584Z,0
2016-05-25T02:57:03.773Z,0
2016-05-25T02:58:03.776Z,0
2016-05-25T02:59:03.778Z,0
2016-05-25T03:00:03.828Z,0
2016-05-25T03:01:03.643Z,0
2016-05-25T03:02:03.709Z,0
2016-05-25T03:03:04.039Z,0
2016-05-25T03:04:03.839Z,0
2016-05-25T03:05:03.700Z,0
2016-05-25T03:06:04.048Z,0
2016-05-25T03:07:03.878Z,0
2016-05-25T03:08:03.850Z,0
2016-05-25T03:09:03.680Z,0
2016-05-25T03:10:03.871Z,0
2016-05-25T03:11:03.888Z,0
2016-05-25T03:12:03.908Z,0
2016-05-25T03:13:03.925Z,0
2016-05-25T03:14:03.754Z,0
2016-05-25T03:15:03.962Z,0
2016-05-25T03:16:03.602Z,0
2016-05-25T03:17:03.793Z,0
2016-05-25T03:18:03.796Z,0
2016-05-25T03:19:03.986Z,0
2016-05-25T03:20:03.957Z,0
2016-05-25T03:21:03.819Z,0
2016-05-25T03:22:03.979Z,0
2016-05-25T03:23:03.732Z,0
2016-05-25T03:24:04.015Z,0
2016-05-25T03:25:04.018Z,0
2016-05-25T03:26:03.849Z,0
2016-05-25T03:27:04.055Z,0
2016-05-25T03:28:04.042Z,0
2016-05-25T03:29:04.076Z,0
2016-05-25T03:30:03.890Z,0
2016-05-25T03:31:04.081Z,0
2016-05-25T03:32:04.521Z,0
2016-05-25T03:33:03.930Z,0
2016-05-25T03:34:03.948Z,0
2016-05-25T03:35:03.967Z,0
2016-05-25T03:36:04.141Z,0
2016-05-25T03:37:04.128Z,0
2016-05-25T03:38:04.131Z,0
2016-05-25T03:39:04.133Z,0
2016-05-25T03:40:04.167Z,0
2016-05-25T03:41:04.155Z,0
2016-05-25T03:42:04.204Z,0
2016-05-25T03:43:04.175Z,0
2016-05-25T03:44:04.194Z,0
2016-05-25T03:45:04.196Z,0
2016-05-25T03:46:04.074Z,0
2016-05-25T03:47:04.499Z,0
2016-05-25T03:48:04.236Z,0
2016-05-25T03:49:04.255Z,0
2016-05-25T03:50:04.241Z,0
2016-05-25T03:51:04.275Z,0
2016-05-25T03:52:04.293Z,0
2016-05-25T03:53:04.312Z,0
2016-05-25T03:54:04.283Z,0
2016-05-25T03:55:04.129Z,0
2016-05-25T03:56:04.149Z,0
2016-05-25T03:57:04.323Z,0
2016-05-25T03:58:04.341Z,0
2016-05-25T03:59:04.329Z,0
2016-05-25T04:00:04.332Z,0
2016-05-25T04:01:04.349Z,0
2016-05-25T04:02:04.648Z,0
2016-05-25T04:03:04.355Z,0
2016-05-25T04:04:04.389Z,0
2016-05-25T04:05:04.251Z,0
2016-05-25T04:06:04.426Z,0
2016-05-25T04:07:04.240Z,0
2016-05-25T04:08:04.399Z,0
2016-05-25T04:09:04.293Z,0
2016-05-25T04:10:04.295Z,0
2016-05-25T04:11:04.751Z,0
2016-05-25T04:12:04.300Z,0
2016-05-25T04:13:04.319Z,0
2016-05-25T04:14:04.478Z,0
2016-05-25T04:15:04.481Z,0
2016-05-25T04:16:04.499Z,0
2016-05-25T04:17:05.314Z,0
2016-05-25T04:18:04.519Z,0
2016-05-25T04:19:04.507Z,0
2016-05-25T04:20:04.564Z,0
2016-05-25T04:21:04.419Z,0
2016-05-25T04:22:04.492Z,0
2016-05-25T04:23:04.878Z,0
2016-05-25T04:24:04.514Z,0
2016-05-25T04:25:04.712Z,0
2016-05-25T04:26:04.880Z,0
2016-05-25T04:27:04.720Z,0
2016-05-25T04:28:04.434Z,0
2016-05-25T04:29:04.773Z,0
2016-05-25T04:30:05.716Z,0
2016-05-25T04:31:04.879Z,0
2016-05-25T04:32:05.338Z,0
2016-05-25T04:33:04.686Z,0
2016-05-25T04:34:04.833Z,0
2016-05-25T04:35:04.743Z,0
2016-05-25T04:36:05.184Z,0
2016-05-25T04:37:04.861Z,0
2016-05-25T04:38:04.879Z,0
2016-05-25T04:39:04.869Z,0
2016-05-25T04:40:06.872Z,0
2016-05-25T04:41:04.952Z,0
2016-05-25T04:42:04.909Z,0
2016-05-25T04:43:05.006Z,0
2016-05-25T04:44:04.773Z,0
2016-05-25T04:45:04.949Z,0
2016-05-25T04:46:04.826Z,0
2016-05-25T04:47:05.204Z,0
2016-05-25T04:48:04.973Z,0
2016-05-25T04:49:04.959Z,0
2016-05-25T04:50:04.853Z,0
2016-05-25T04:51:05.106Z,0
2016-05-25T04:52:04.998Z,0
2016-05-25T04:53:05.236Z,0
2016-05-25T04:54:05.019Z,5
2016-05-25T04:55:05.382Z,5
2016-05-25T04:56:04.900Z,5
2016-05-25T04:57:05.043Z,5
2016-05-25T04:58:05.218Z,5
2016-05-25T04:59:05.111Z,5
2016-05-25T05:00:04.911Z,5
2016-05-25T05:01:05.289Z,5
2016-05-25T05:02:05.416Z,5
2016-05-25T05:03:05.122Z,5
2016-05-25T05:04:05.406Z,5
2016-05-25T05:05:04.815Z,5
2016-05-25T05:06:04.990Z,5
2016-05-25T05:07:05.132Z,5
2016-05-25T05:08:05.010Z,5
2016-05-25T05:09:05.326Z,5
2016-05-25T05:10:05.187Z,5
2016-05-25T05:11:05.471Z,5
2016-05-25T05:12:04.943Z,5
2016-05-25T05:13:05.509Z,5
2016-05-25T05:14:05.057Z,5
2016-05-25T05:15:05.435Z,5
2016-05-25T05:16:05.220Z,5
2016-05-25T05:17:05.270Z,5
2016-05-25T05:18:05.225Z,5
2016-05-25T05:19:05.415Z,5
2016-05-25T05:20:04.808Z,5
2016-05-25T05:21:05.140Z,5
2016-05-25T05:22:05.126Z,5
2016-05-25T05:23:05.364Z,5
2016-05-25T05:24:05.147Z,5
2016-05-25T05:25:05.400Z,5
2016-05-25T05:26:05.309Z,5
2016-05-25T05:27:05.656Z,5
2016-05-25T05:28:05.486Z,5
2016-05-25T05:29:05.364Z,5
2016-05-25T05:30:05.350Z,5
2016-05-25T05:31:05.432Z,5
2016-05-25T05:32:06.466Z,5
2016-05-25T05:33:05.453Z,5
2016-05-25T05:34:05.236Z,5
2016-05-25T05:35:05.568Z,5
2016-05-25T05:36:05.414Z,5
2016-05-25T05:37:05.433Z,5
2016-05-25T05:38:05.263Z,5
2016-05-25T05:39:05.485Z,5
2016-05-25T05:40:05.440Z,5
2016-05-25T05:41:05.302Z,5
2016-05-25T05:42:05.462Z,5
2016-05-25T05:43:05.198Z,5
2016-05-25T05:44:05.498Z,5
2016-05-25T05:45:05.547Z,5
2016-05-25T05:46:06.473Z,5
2016-05-25T05:47:06.100Z,5
2016-05-25T05:48:05.524Z,5
2016-05-25T05:49:05.543Z,5
2016-05-25T05:50:05.389Z,5
2016-05-25T05:51:07.282Z,5
2016-05-25T05:52:05.567Z,5
2016-05-25T05:53:05.569Z,5
2016-05-25T05:54:05.587Z,5
2016-05-25T05:55:05.261Z,5
2016-05-25T05:56:07.562Z,5
2016-05-25T05:57:05.642Z,5
2016-05-25T05:58:05.411Z,5
2016-05-25T05:59:05.633Z,5
2016-05-25T06:00:05.494Z,5
2016-05-25T06:01:06.700Z,5
2016-05-25T06:02:05.202Z,5
2016-05-25T06:03:05.830Z,5
2016-05-25T06:04:05.521Z,5
2016-05-25T06:05:05.679Z,5
2016-05-25T06:06:06.494Z,5
2016-05-25T06:07:05.450Z,5
2016-05-25T06:08:05.702Z,5
2016-05-25T06:09:05.706Z,5
2016-05-25T06:10:05.740Z,5
2016-05-25T06:11:05.743Z,5
2016-05-25T06:12:05.777Z,5
2016-05-25T06:13:05.795Z,5
2016-05-25T06:14:05.469Z,5
2016-05-25T06:15:05.800Z,5
2016-05-25T06:16:05.318Z,5
2016-05-25T06:17:06.556Z,5
2016-05-25T06:18:08.073Z,5
2016-05-25T06:19:05.827Z,5
2016-05-25T06:20:05.501Z,5
2016-05-25T06:21:05.831Z,5
2016-05-25T06:22:05.695Z,5
2016-05-25T06:23:05.822Z,5
2016-05-25T06:24:05.856Z,5
2016-05-25T06:25:05.859Z,5
2016-05-25T06:26:05.736Z,5
2016-05-25T06:27:05.879Z,10
2016-05-25T06:28:05.788Z,10
2016-05-25T06:29:05.916Z,10
2016-05-25T06:30:05.918Z,5
2016-05-25T06:31:05.905Z,5
2016-05-25T06:32:06.377Z,5
2016-05-25T06:33:05.802Z,10
2016-05-25T06:34:05.961Z,10
2016-05-25T06:35:05.980Z,10
2016-05-25T06:36:05.982Z,10
2016-05-25T06:37:05.985Z,10
2016-05-25T06:38:05.972Z,10
2016-05-25T06:39:05.865Z,10
2016-05-25T06:40:05.680Z,10
2016-05-25T06:41:05.713Z,10
2016-05-25T06:42:06.030Z,10
2016-05-25T06:43:06.141Z,10
2016-05-25T06:44:06.019Z,10
2016-05-25T06:45:05.912Z,10
2016-05-25T06:46:06.040Z,10
2016-05-25T06:47:06.011Z,10
2016-05-25T06:48:06.092Z,10
2016-05-25T06:49:06.095Z,10
2016-05-25T06:50:05.940Z,10
2016-05-25T06:51:05.991Z,10
2016-05-25T06:52:06.118Z,15
2016-05-25T06:53:06.120Z,15
2016-05-25T06:54:05.968Z,15
2016-05-25T06:55:06.173Z,15
2016-05-25T06:56:06.004Z,15
2016-05-25T06:57:06.226Z,15
2016-05-25T06:58:06.166Z,15
2016-05-25T06:59:06.184Z,15
2016-05-25T07:00:06.202Z,15
2016-05-25T07:01:06.189Z,20
2016-05-25T07:02:06.833Z,20
2016-05-25T07:03:08.008Z,20
2016-05-25T07:04:06.244Z,20
2016-05-25T07:05:06.278Z,20
2016-05-25T07:06:06.266Z,20
2016-05-25T07:07:06.236Z,20
2016-05-25T07:08:06.271Z,20
2016-05-25T07:09:06.133Z,20
2016-05-25T07:10:06.291Z,20
2016-05-25T07:11:06.122Z,20
2016-05-25T07:12:06.344Z,25
2016-05-25T07:13:06.331Z,25
2016-05-25T07:14:06.162Z,25
2016-05-25T07:15:06.352Z,25
2016-05-25T07:16:06.323Z,25
2016-05-25T07:17:06.045Z,25
2016-05-25T07:18:08.860Z,25
2016-05-25T07:19:06.394Z,30
2016-05-25T07:20:06.225Z,30
2016-05-25T07:21:06.384Z,30
2016-05-25T07:22:06.231Z,30
2016-05-25T07:23:08.734Z,30
2016-05-25T07:24:06.407Z,30
2016-05-25T07:25:06.285Z,30
2016-05-25T07:26:06.444Z,30
2016-05-25T07:27:06.275Z,30
2016-05-25T07:28:06.293Z,30
2016-05-25T07:29:06.295Z,30
2016-05-25T07:30:06.486Z,30
2016-05-25T07:31:06.473Z,30
2016-05-25T07:32:06.570Z,30
2016-05-25T07:33:06.510Z,40
2016-05-25T07:34:06.544Z,40
2016-05-25T07:35:06.516Z,40
2016-05-25T07:36:06.533Z,40
2016-05-25T07:37:06.553Z,40
2016-05-25T07:38:06.570Z,40
2016-05-25T07:39:06.386Z,40
2016-05-25T07:40:06.404Z,45
2016-05-25T07:41:06.250Z,45
2016-05-25T07:42:06.580Z,45
2016-05-25T07:43:06.568Z,50
2016-05-25T07:44:06.430Z,50
2016-05-25T07:45:06.433Z,55
2016-05-25T07:46:06.466Z,50
2016-05-25T07:47:06.469Z,50
2016-05-25T07:48:07.504Z,45
2016-05-25T07:49:06.490Z,45
2016-05-25T07:50:06.666Z,45
2016-05-25T07:51:06.465Z,35
2016-05-25T07:52:06.671Z,35
2016-05-25T07:53:08.579Z,30
2016-05-25T07:54:06.645Z,30
2016-05-25T07:55:06.507Z,30
2016-05-25T07:56:06.573Z,25
2016-05-25T07:57:06.371Z,25
2016-05-25T07:58:15.795Z,25
2016-05-25T07:59:06.549Z,25
2016-05-25T08:00:06.692Z,25
2016-05-25T08:01:06.694Z,25
2016-05-25T08:02:07.806Z,25
2016-05-25T08:03:07.716Z,25
2016-05-25T08:04:06.578Z,25
2016-05-25T08:05:06.753Z,25
2016-05-25T08:06:06.583Z,25
2016-05-25T08:07:06.773Z,25
2016-05-25T08:08:07.698Z,25
2016-05-25T08:09:06.607Z,25
2016-05-25T08:10:06.766Z,25
2016-05-25T08:11:06.628Z,20
2016-05-25T08:12:06.647Z,20
2016-05-25T08:13:06.649Z,20
2016-05-25T08:14:06.682Z,20
2016-05-25T08:15:06.810Z,20
2016-05-25T08:16:06.844Z,20
2016-05-25T08:17:06.910Z,20
2016-05-25T08:18:07.694Z,20
2016-05-25T08:19:06.696Z,20
2016-05-25T08:20:06.887Z,20
2016-05-25T08:21:06.702Z,20
2016-05-25T08:22:06.751Z,20
2016-05-25T08:23:06.738Z,20
2016-05-25T08:24:06.882Z,20
2016-05-25T08:25:06.915Z,20
2016-05-25T08:26:06.621Z,20
2016-05-25T08:27:06.936Z,20
2016-05-25T08:28:06.642Z,20
2016-05-25T08:29:06.645Z,20
2016-05-25T08:30:06.960Z,20
2016-05-25T08:31:06.962Z,20
2016-05-25T08:32:06.997Z,20
2016-05-25T08:33:07.172Z,20
2016-05-25T08:34:06.721Z,20
2016-05-25T08:35:06.989Z,25
2016-05-25T08:36:07.070Z,25
2016-05-25T08:37:07.025Z,25
2016-05-25T08:38:08.748Z,25
2016-05-25T08:39:07.016Z,30
2016-05-25T08:40:06.878Z,30
2016-05-25T08:41:07.068Z,30
2016-05-25T08:42:07.102Z,35
2016-05-25T08:43:07.464Z,35
2016-05-25T08:44:07.076Z,35
2016-05-25T08:45:07.079Z,35
2016-05-25T08:46:07.097Z,30
2016-05-25T08:47:07.162Z,30
2016-05-25T08:48:08.415Z,30
2016-05-25T08:49:06.996Z,30
2016-05-25T08:50:07.138Z,30
2016-05-25T08:51:07.157Z,30
2016-05-25T08:52:07.144Z,30
2016-05-25T08:53:08.444Z,35
2016-05-25T08:54:07.009Z,35
2016-05-25T08:55:07.215Z,35
2016-05-25T08:56:07.202Z,35
2016-05-25T08:57:07.220Z,35
2016-05-25T08:58:07.535Z,35
2016-05-25T08:59:07.085Z,35
2016-05-25T09:00:07.245Z,35
2016-05-25T09:01:07.231Z,35
2016-05-25T09:02:07.500Z,35
2016-05-25T09:03:07.299Z,40
2016-05-25T09:04:07.255Z,40
2016-05-25T09:05:07.319Z,40
2016-05-25T09:06:07.307Z,40
2016-05-25T09:07:07.309Z,40
2016-05-25T09:08:07.187Z,45
2016-05-25T09:09:07.315Z,45
2016-05-25T09:10:07.333Z,45
2016-05-25T09:11:07.352Z,40
2016-05-25T09:12:07.339Z,40
2016-05-25T09:13:07.373Z,40
2016-05-25T09:14:07.360Z,40
2016-05-25T09:15:07.378Z,40
2016-05-25T09:16:07.241Z,40
2016-05-25T09:17:07.728Z,45
2016-05-25T09:18:09.338Z,45
2016-05-25T09:19:07.264Z,45
2016-05-25T09:20:07.454Z,45
2016-05-25T09:21:07.285Z,45
2016-05-25T09:22:07.132Z,45
2016-05-25T09:23:07.494Z,45
2016-05-25T09:24:07.309Z,45
2016-05-25T09:25:07.312Z,45
2016-05-25T09:26:07.314Z,45
2016-05-25T09:27:07.504Z,45
2016-05-25T09:28:09.725Z,45
2016-05-25T09:29:07.509Z,45
2016-05-25T09:30:07.871Z,45
2016-05-25T09:31:07.531Z,45
2016-05-25T09:32:07.893Z,45
2016-05-25T09:33:07.270Z,45
2016-05-25T09:34:07.570Z,45
2016-05-25T09:35:07.417Z,45
2016-05-25T09:36:07.419Z,45
2016-05-25T09:37:07.890Z,45
2016-05-25T09:38:08.455Z,45
2016-05-25T09:39:07.443Z,45
2016-05-25T09:40:07.852Z,45
2016-05-25T09:41:07.635Z,45
2016-05-25T09:42:07.498Z,45
2016-05-25T09:43:09.454Z,45
2016-05-25T09:44:07.519Z,45
2016-05-25T09:45:07.677Z,45
2016-05-25T09:46:07.696Z,40
2016-05-25T09:47:07.527Z,40
2016-05-25T09:48:10.733Z,40
2016-05-25T09:49:07.704Z,35
2016-05-25T09:50:07.738Z,35
2016-05-25T09:51:07.569Z,35
2016-05-25T09:52:07.774Z,35
2016-05-25T09:53:07.824Z,35
2016-05-25T09:54:08.140Z,35
2016-05-25T09:55:07.767Z,35
2016-05-25T09:56:07.645Z,35
2016-05-25T09:57:07.897Z,35
2016-05-25T09:58:07.510Z,35
2016-05-25T09:59:07.809Z,35
2016-05-25T10:00:07.811Z,35
2016-05-25T10:01:07.892Z,35
2016-05-25T10:02:08.254Z,35
2016-05-25T10:03:07.867Z,40
2016-05-25T10:04:07.712Z,40
2016-05-25T10:05:07.747Z,40
2016-05-25T10:06:08.109Z,40
2016-05-25T10:07:07.892Z,40
2016-05-25T10:08:08.067Z,40
2016-05-25T10:09:07.930Z,40
2016-05-25T10:10:08.261Z,40
2016-05-25T10:11:07.638Z,40
2016-05-25T10:12:07.797Z,40
2016-05-25T10:13:07.987Z,40
2016-05-25T10:14:07.974Z,40
2016-05-25T10:15:08.321Z,40
2016-05-25T10:16:07.855Z,45
2016-05-25T10:17:07.842Z,45
2016-05-25T10:18:07.705Z,45
2016-05-25T10:19:08.175Z,40
2016-05-25T10:20:11.959Z,40
2016-05-25T10:21:08.040Z,40
2016-05-25T10:22:08.027Z,40
2016-05-25T10:23:08.358Z,40
2016-05-25T10:24:07.907Z,40
2016-05-25T10:25:08.067Z,35
2016-05-25T10:26:09.022Z,40
2016-05-25T10:27:08.368Z,40
2016-05-25T10:28:08.278Z,40
2016-05-25T10:29:07.984Z,40
2016-05-25T10:30:08.111Z,40
2016-05-25T10:31:10.348Z,40
2016-05-25T10:32:22.507Z,40
2016-05-25T10:33:08.010Z,40
2016-05-25T10:34:08.153Z,35
2016-05-25T10:35:08.046Z,35
2016-05-25T10:36:09.206Z,35
2016-05-25T10:37:08.192Z,35
2016-05-25T10:38:08.195Z,40
2016-05-25T10:39:08.089Z,40
2016-05-25T10:40:08.466Z,35
2016-05-25T10:41:11.062Z,35
2016-05-25T10:42:08.237Z,35
2016-05-25T10:43:08.256Z,30
2016-05-25T10:44:08.242Z,30
2016-05-25T10:45:08.572Z,30
2016-05-25T10:46:08.279Z,30
2016-05-25T10:47:08.219Z,30
2016-05-25T10:48:08.331Z,30
2016-05-25T10:49:08.616Z,30
2016-05-25T10:50:08.321Z,30
2016-05-25T10:51:08.636Z,30
2016-05-25T10:52:08.186Z,30
2016-05-25T10:53:08.361Z,30
2016-05-25T10:54:08.363Z,25
2016-05-25T10:55:08.210Z,25
2016-05-25T10:56:08.385Z,25
2016-05-25T10:57:08.230Z,30
2016-05-25T10:58:08.093Z,30
2016-05-25T10:59:08.564Z,30
2016-05-25T11:00:08.285Z,30
2016-05-25T11:01:08.679Z,30
2016-05-25T11:02:11.353Z,30
2016-05-25T11:03:08.466Z,30
2016-05-25T11:04:08.484Z,30
2016-05-25T11:05:08.518Z,30
2016-05-25T11:06:08.630Z,25
2016-05-25T11:07:08.492Z,30
2016-05-25T11:08:08.510Z,30
2016-05-25T11:09:08.403Z,30
2016-05-25T11:10:08.578Z,30
2016-05-25T11:11:08.222Z,35
2016-05-25T11:12:09.287Z,35
2016-05-25T11:13:08.398Z,35
2016-05-25T11:14:08.400Z,40
2016-05-25T11:15:08.403Z,40
2016-05-25T11:16:08.641Z,45
2016-05-25T11:17:10.925Z,50
2016-05-25T11:18:09.475Z,50
2016-05-25T11:19:08.509Z,50
2016-05-25T11:20:08.480Z,45
2016-05-25T11:21:08.482Z,45
2016-05-25T11:22:09.548Z,40
2016-05-25T11:23:10.441Z,40
2016-05-25T11:24:08.678Z,40
2016-05-25T11:25:08.540Z,40
2016-05-25T11:26:08.872Z,40
2016-05-25T11:27:08.686Z,45
2016-05-25T11:28:10.845Z,45
2016-05-25T11:29:08.707Z,45
2016-05-25T11:30:08.726Z,45
2016-05-25T11:31:08.446Z,40
2016-05-25T11:32:13.262Z,40
2016-05-25T11:33:12.452Z,40
2016-05-25T11:34:08.471Z,40
2016-05-25T11:35:08.646Z,40
2016-05-25T11:36:08.789Z,40
2016-05-25T11:37:10.791Z,40
2016-05-25T11:38:08.529Z,40
2016-05-25T11:39:08.640Z,40
2016-05-25T11:40:08.706Z,40
2016-05-25T11:41:08.834Z,40
2016-05-25T11:42:08.851Z,40
2016-05-25T11:43:08.870Z,40
2016-05-25T11:44:08.716Z,45
2016-05-25T11:45:08.875Z,45
2016-05-25T11:46:08.737Z,45
2016-05-25T11:47:09.100Z,50
2016-05-25T11:48:11.493Z,50
2016-05-25T11:49:08.949Z,55
2016-05-25T11:50:08.920Z,55
2016-05-25T11:51:08.938Z,50
2016-05-25T11:52:08.941Z,50
2016-05-25T11:53:08.960Z,50
2016-05-25T11:54:08.977Z,55
2016-05-25T11:55:08.824Z,60
2016-05-25T11:56:09.014Z,65
2016-05-25T11:57:08.516Z,70
2016-05-25T11:58:09.035Z,75
2016-05-25T11:59:08.866Z,75
2016-05-25T12:00:09.057Z,70
2016-05-25T12:01:09.027Z,75
2016-05-25T12:02:09.421Z,75
2016-05-25T12:03:08.924Z,75
2016-05-25T12:04:09.083Z,70
2016-05-25T12:05:09.101Z,70
2016-05-25T12:06:09.103Z,65
2016-05-25T12:07:08.965Z,70
2016-05-25T12:08:08.953Z,70
2016-05-25T12:09:08.971Z,80
2016-05-25T12:10:09.131Z,75
2016-05-25T12:11:09.039Z,75
2016-05-25T12:12:08.994Z,75
2016-05-25T12:13:09.170Z,75
2016-05-25T12:14:09.172Z,70
2016-05-25T12:15:09.190Z,80
2016-05-25T12:16:09.177Z,80
2016-05-25T12:17:11.852Z,70
2016-05-25T12:18:10.308Z,65
2016-05-25T12:19:09.248Z,70
2016-05-25T12:20:09.220Z,70
2016-05-25T12:21:09.238Z,70
2016-05-25T12:22:11.131Z,70
2016-05-25T12:23:09.259Z,80
2016-05-25T12:24:09.261Z,70
2016-05-25T12:25:09.280Z,65
2016-05-25T12:26:09.313Z,80
2016-05-25T12:27:11.254Z,80
2016-05-25T12:28:09.288Z,80
2016-05-25T12:29:09.338Z,75
2016-05-25T12:30:09.309Z,60
2016-05-25T12:31:09.343Z,55
2016-05-25T12:32:10.142Z,55
2016-05-25T12:33:10.098Z,55
2016-05-25T12:34:09.382Z,55
2016-05-25T12:35:09.401Z,45
2016-05-25T12:36:09.371Z,45
2016-05-25T12:37:09.421Z,45
2016-05-25T12:38:09.409Z,45
2016-05-25T12:39:09.427Z,45
2016-05-25T12:40:09.304Z,50
2016-05-25T12:41:09.432Z,50
2016-05-25T12:42:09.278Z,50
2016-05-25T12:43:10.609Z,50
2016-05-25T12:44:09.347Z,50
2016-05-25T12:45:09.475Z,50
2016-05-25T12:46:09.492Z,55
2016-05-25T12:47:12.355Z,50
2016-05-25T12:48:09.217Z,50
2016-05-25T12:49:09.564Z,55
2016-05-25T12:50:09.567Z,55
2016-05-25T12:51:09.552Z,50
2016-05-25T12:52:10.446Z,55
2016-05-25T12:53:10.136Z,60
2016-05-25T12:54:09.405Z,65
2016-05-25T12:55:09.595Z,65
2016-05-25T12:56:09.597Z,70
2016-05-25T12:57:10.709Z,70
2016-05-25T12:58:09.603Z,80
2016-05-25T12:59:09.465Z,65
2016-05-25T13:00:09.640Z,70
2016-05-25T13:01:09.657Z,65
2016-05-25T13:02:13.052Z,65
2016-05-25T13:03:09.413Z,65
2016-05-25T13:04:09.556Z,75
2016-05-25T13:05:09.529Z,60
2016-05-25T13:06:09.546Z,60
2016-05-25T13:07:09.705Z,55
2016-05-25T13:08:09.723Z,60
2016-05-25T13:09:09.585Z,60
2016-05-25T13:10:09.587Z,65
2016-05-25T13:11:09.763Z,60
2016-05-25T13:12:12.672Z,55
2016-05-25T13:13:09.596Z,55
2016-05-25T13:14:09.787Z,50
2016-05-25T13:15:09.789Z,50
2016-05-25T13:16:09.792Z,50
2016-05-25T13:17:12.795Z,55
2016-05-25T13:18:12.281Z,50
2016-05-25T13:19:09.816Z,50
2016-05-25T13:20:09.865Z,50
2016-05-25T13:21:09.868Z,50
2016-05-25T13:22:11.761Z,50
2016-05-25T13:23:09.702Z,50
2016-05-25T13:24:09.891Z,45
2016-05-25T13:25:09.916Z,50
2016-05-25T13:26:09.785Z,45
2016-05-25T13:27:09.983Z,40
2016-05-25T13:28:09.995Z,45
2016-05-25T13:29:10.051Z,45
2016-05-25T13:30:10.043Z,45
2016-05-25T13:31:09.647Z,45
2016-05-25T13:32:11.237Z,45
2016-05-25T13:33:10.763Z,45
2016-05-25T13:34:09.978Z,45
2016-05-25T13:35:10.175Z,40
2016-05-25T13:36:10.165Z,45
2016-05-25T13:37:12.576Z,45
2016-05-25T13:38:10.114Z,45
2016-05-25T13:39:10.057Z,45
2016-05-25T13:40:10.251Z,50
2016-05-25T13:41:10.270Z,45
2016-05-25T13:42:11.180Z,40
2016-05-25T13:43:10.263Z,40
2016-05-25T13:44:10.109Z,45
2016-05-25T13:45:10.145Z,55
2016-05-25T13:46:10.287Z,60
2016-05-25T13:47:10.354Z,55
2016-05-25T13:48:10.168Z,55
2016-05-25T13:49:10.329Z,50
2016-05-25T13:50:10.191Z,55
2016-05-25T13:51:10.366Z,40
2016-05-25T13:52:10.337Z,50
2016-05-25T13:53:10.402Z,50
2016-05-25T13:54:10.374Z,65
2016-05-25T13:55:10.408Z,65
2016-05-25T13:56:10.426Z,60
2016-05-25T13:57:10.241Z,60
2016-05-25T13:58:10.104Z,55
2016-05-25T13:59:10.449Z,60
2016-05-25T14:00:10.312Z,45
2016-05-25T14:01:10.454Z,45
2016-05-25T14:02:10.348Z,60
2016-05-25T14:03:11.662Z,55
2016-05-25T14:04:10.463Z,50
2016-05-25T14:05:10.200Z,50
2016-05-25T14:06:10.499Z,50
2016-05-25T14:07:10.517Z,50
2016-05-25T14:08:14.317Z,50
2016-05-25T14:09:10.570Z,50
2016-05-25T14:10:10.542Z,50
2016-05-25T14:11:10.575Z,50
2016-05-25T14:12:10.547Z,50
2016-05-25T14:13:10.580Z,40
2016-05-25T14:14:10.443Z,35
2016-05-25T14:15:10.602Z,30
2016-05-25T14:16:10.620Z,30
2016-05-25T14:17:11.560Z,30
2016-05-25T14:18:11.657Z,30
2016-05-25T14:19:10.488Z,35
2016-05-25T14:20:10.521Z,30
2016-05-25T14:21:10.650Z,30
2016-05-25T14:22:10.699Z,40
2016-05-25T14:23:10.374Z,40
2016-05-25T14:24:10.563Z,50
2016-05-25T14:25:10.676Z,50
2016-05-25T14:26:10.568Z,50
2016-05-25T14:27:10.713Z,35
2016-05-25T14:28:12.137Z,30
2016-05-25T14:29:10.592Z,30